sensor_id;sensor_type;location;lat;lon;timestamp;P1;durP1;ratioP1;P2;durP2;ratioP2
58697;SDS011;44475;53.206;-6.106;2023-07-20T00:02:18;4.45;;;2.20;;
58697;SDS011;44475;53.206;-6.106;2023-07-20T00:04:44;5.35;;;2.30;;
58697;SDS011;44475;53.206;-6.106;2023-07-20T00:07:10;3.38;;;2.08;;
58697;SDS011;44475;53.206;-6.106;2023-07-20T00:09:37;3.90;;;2.08;;
58697;SDS011;44475;53.206;-6.106;2023-07-20T00:12:03;3.25;;;1.90;;
58697;SDS011;44475;53.206;-6.106;2023-07-20T00:14:29;6.15;;;2.05;;
58697;SDS011;44475;53.206;-6.106;2023-07-20T00:16:57;3.17;;;1.98;;
58697;SDS011;44475;53.206;-6.106;2023-07-20T00:19:23;3.05;;;2.00;;
58697;SDS011;44475;53.206;-6.106;2023-07-20T00:21:50;5.53;;;2.15;;
58697;SDS011;44475;53.206;-6.106;2023-07-20T00:24:17;3.78;;;2.00;;
58697;SDS011;44475;53.206;-6.106;2023-07-20T00:26:44;2.80;;;1.80;;
58697;SDS011;44475;53.206;-6.106;2023-07-20T00:29:11;5.30;;;2.40;;
58697;SDS011;44475;53.206;-6.106;2023-07-20T00:31:39;4.30;;;2.13;;
58697;SDS011;44475;53.206;-6.106;2023-07-20T00:34:05;4.03;;;1.90;;
58697;SDS011;44475;53.206;-6.106;2023-07-20T00:36:32;4.82;;;1.92;;
58697;SDS011;44475;53.206;-6.106;2023-07-20T00:39:01;3.97;;;2.05;;
58697;SDS011;44475;53.206;-6.106;2023-07-20T00:41:28;3.28;;;2.00;;
58697;SDS011;44475;53.206;-6.106;2023-07-20T00:43:55;3.72;;;1.90;;
58697;SDS011;44475;53.206;-6.106;2023-07-20T00:46:22;3.88;;;1.90;;
58697;SDS011;44475;53.206;-6.106;2023-07-20T00:48:50;3.95;;;2.00;;
58697;SDS011;44475;53.206;-6.106;2023-07-20T00:51:18;2.92;;;1.90;;
58697;SDS011;44475;53.206;-6.106;2023-07-20T00:53:46;2.40;;;1.90;;
58697;SDS011;44475;53.206;-6.106;2023-07-20T00:56:14;3.00;;;1.77;;
58697;SDS011;44475;53.206;-6.106;2023-07-20T00:58:41;3.10;;;1.90;;
58697;SDS011;44475;53.206;-6.106;2023-07-20T01:01:07;3.28;;;1.80;;
58697;SDS011;44475;53.206;-6.106;2023-07-20T01:03:33;4.55;;;2.00;;
58697;SDS011;44475;53.206;-6.106;2023-07-20T01:06:10;2.10;;;1.70;;
58697;SDS011;44475;53.206;-6.106;2023-07-20T01:09:13;3.50;;;2.00;;
58697;SDS011;44475;53.206;-6.106;2023-07-20T01:14:16;5.05;;;2.03;;
58697;SDS011;44475;53.206;-6.106;2023-07-20T01:16:43;2.83;;;1.95;;
58697;SDS011;44475;53.206;-6.106;2023-07-20T01:19:10;2.80;;;1.80;;
58697;SDS011;44475;53.206;-6.106;2023-07-20T01:21:40;2.90;;;1.90;;
58697;SDS011;44475;53.206;-6.106;2023-07-20T01:29:30;2.40;;;1.70;;
58697;SDS011;44475;53.206;-6.106;2023-07-20T01:32:07;3.78;;;1.80;;
58697;SDS011;44475;53.206;-6.106;2023-07-20T01:34:35;3.05;;;1.80;;
58697;SDS011;44475;53.206;-6.106;2023-07-20T01:37:03;1.83;;;1.67;;
58697;SDS011;44475;53.206;-6.106;2023-07-20T01:39:30;2.55;;;1.80;;
58697;SDS011;44475;53.206;-6.106;2023-07-20T01:41:58;3.00;;;1.70;;
58697;SDS011;44475;53.206;-6.106;2023-07-20T01:44:25;2.47;;;1.90;;
58697;SDS011;44475;53.206;-6.106;2023-07-20T01:46:52;2.97;;;1.77;;
58697;SDS011;44475;53.206;-6.106;2023-07-20T01:49:18;2.45;;;1.70;;
58697;SDS011;44475;53.206;-6.106;2023-07-20T01:51:44;4.93;;;1.95;;
58697;SDS011;44475;53.206;-6.106;2023-07-20T01:54:11;3.53;;;1.80;;
58697;SDS011;44475;53.206;-6.106;2023-07-20T01:56:37;2.70;;;1.90;;
58697;SDS011;44475;53.206;-6.106;2023-07-20T01:59:04;3.10;;;2.08;;
58697;SDS011;44475;53.206;-6.106;2023-07-20T02:01:30;2.50;;;1.65;;
58697;SDS011;44475;53.206;-6.106;2023-07-20T02:03:56;2.38;;;1.70;;
58697;SDS011;44475;53.206;-6.106;2023-07-20T02:06:23;4.13;;;1.70;;
58697;SDS011;44475;53.206;-6.106;2023-07-20T02:08:49;2.10;;;1.70;;
58697;SDS011;44475;53.206;-6.106;2023-07-20T02:11:15;2.75;;;1.90;;
58697;SDS011;44475;53.206;-6.106;2023-07-20T02:13:41;3.03;;;1.80;;
58697;SDS011;44475;53.206;-6.106;2023-07-20T02:16:08;2.35;;;1.77;;
58697;SDS011;44475;53.206;-6.106;2023-07-20T02:18:34;1.92;;;1.70;;
58697;SDS011;44475;53.206;-6.106;2023-07-20T02:21:02;2.50;;;1.70;;
58697;SDS011;44475;53.206;-6.106;2023-07-20T02:23:28;2.90;;;1.77;;
58697;SDS011;44475;53.206;-6.106;2023-07-20T02:25:54;3.38;;;1.90;;
58697;SDS011;44475;53.206;-6.106;2023-07-20T02:28:20;2.20;;;1.80;;
58697;SDS011;44475;53.206;-6.106;2023-07-20T02:30:47;2.70;;;1.70;;
58697;SDS011;44475;53.206;-6.106;2023-07-20T02:33:14;2.25;;;1.70;;
58697;SDS011;44475;53.206;-6.106;2023-07-20T02:35:40;1.95;;;1.67;;
58697;SDS011;44475;53.206;-6.106;2023-07-20T02:38:07;3.03;;;1.70;;
58697;SDS011;44475;53.206;-6.106;2023-07-20T02:40:33;2.65;;;1.75;;
58697;SDS011;44475;53.206;-6.106;2023-07-20T02:42:59;3.08;;;1.70;;
58697;SDS011;44475;53.206;-6.106;2023-07-20T02:45:26;3.47;;;2.00;;
58697;SDS011;44475;53.206;-6.106;2023-07-20T02:47:52;2.28;;;1.77;;
58697;SDS011;44475;53.206;-6.106;2023-07-20T02:50:18;1.77;;;1.60;;
58697;SDS011;44475;53.206;-6.106;2023-07-20T02:52:45;3.92;;;1.88;;
58697;SDS011;44475;53.206;-6.106;2023-07-20T02:55:11;1.77;;;1.60;;
58697;SDS011;44475;53.206;-6.106;2023-07-20T02:57:37;1.88;;;1.55;;
58697;SDS011;44475;53.206;-6.106;2023-07-20T03:00:03;4.22;;;1.67;;
58697;SDS011;44475;53.206;-6.106;2023-07-20T03:02:31;2.67;;;1.70;;
58697;SDS011;44475;53.206;-6.106;2023-07-20T03:04:57;2.22;;;1.63;;
58697;SDS011;44475;53.206;-6.106;2023-07-20T03:07:29;2.00;;;1.70;;
58697;SDS011;44475;53.206;-6.106;2023-07-20T03:09:55;2.08;;;1.60;;
58697;SDS011;44475;53.206;-6.106;2023-07-20T03:12:22;1.77;;;1.60;;
58697;SDS011;44475;53.206;-6.106;2023-07-20T03:14:49;1.67;;;1.50;;
58697;SDS011;44475;53.206;-6.106;2023-07-20T03:17:16;2.08;;;1.70;;
58697;SDS011;44475;53.206;-6.106;2023-07-20T03:19:44;2.60;;;1.88;;
58697;SDS011;44475;53.206;-6.106;2023-07-20T03:22:10;2.05;;;1.70;;
58697;SDS011;44475;53.206;-6.106;2023-07-20T03:24:37;2.88;;;1.80;;
58697;SDS011;44475;53.206;-6.106;2023-07-20T03:27:03;1.83;;;1.50;;
58697;SDS011;44475;53.206;-6.106;2023-07-20T03:29:31;1.90;;;1.58;;
58697;SDS011;44475;53.206;-6.106;2023-07-20T03:31:58;1.88;;;1.60;;
58697;SDS011;44475;53.206;-6.106;2023-07-20T03:34:24;2.47;;;1.80;;
58697;SDS011;44475;53.206;-6.106;2023-07-20T03:36:51;2.42;;;1.60;;
58697;SDS011;44475;53.206;-6.106;2023-07-20T03:39:18;2.20;;;1.70;;
58697;SDS011;44475;53.206;-6.106;2023-07-20T03:41:44;2.00;;;1.60;;
58697;SDS011;44475;53.206;-6.106;2023-07-20T03:44:11;1.60;;;1.50;;
58697;SDS011;44475;53.206;-6.106;2023-07-20T03:46:37;2.28;;;1.70;;
58697;SDS011;44475;53.206;-6.106;2023-07-20T03:49:03;2.78;;;1.50;;
58697;SDS011;44475;53.206;-6.106;2023-07-20T03:51:31;2.00;;;1.70;;
58697;SDS011;44475;53.206;-6.106;2023-07-20T03:53:57;2.85;;;1.60;;
58697;SDS011;44475;53.206;-6.106;2023-07-20T03:56:24;2.35;;;1.60;;
58697;SDS011;44475;53.206;-6.106;2023-07-20T03:58:51;1.73;;;1.55;;
58697;SDS011;44475;53.206;-6.106;2023-07-20T04:01:17;1.90;;;1.70;;
58697;SDS011;44475;53.206;-6.106;2023-07-20T04:03:44;2.30;;;1.60;;
58697;SDS011;44475;53.206;-6.106;2023-07-20T04:06:10;1.80;;;1.50;;
58697;SDS011;44475;53.206;-6.106;2023-07-20T04:08:37;2.38;;;1.70;;
58697;SDS011;44475;53.206;-6.106;2023-07-20T04:11:03;1.83;;;1.60;;
58697;SDS011;44475;53.206;-6.106;2023-07-20T04:13:29;4.13;;;1.60;;
58697;SDS011;44475;53.206;-6.106;2023-07-20T04:15:59;2.10;;;1.55;;
58697;SDS011;44475;53.206;-6.106;2023-07-20T04:18:26;1.92;;;1.63;;
58697;SDS011;44475;53.206;-6.106;2023-07-20T04:20:52;2.00;;;1.65;;
58697;SDS011;44475;53.206;-6.106;2023-07-20T04:23:18;3.00;;;1.80;;
58697;SDS011;44475;53.206;-6.106;2023-07-20T04:25:44;2.17;;;1.67;;
58697;SDS011;44475;53.206;-6.106;2023-07-20T04:28:12;2.67;;;1.80;;
58697;SDS011;44475;53.206;-6.106;2023-07-20T04:30:43;1.95;;;1.50;;
58697;SDS011;44475;53.206;-6.106;2023-07-20T04:33:10;2.13;;;1.60;;
58697;SDS011;44475;53.206;-6.106;2023-07-20T04:35:49;2.38;;;1.60;;
58697;SDS011;44475;53.206;-6.106;2023-07-20T04:38:28;2.45;;;1.88;;
58697;SDS011;44475;53.206;-6.106;2023-07-20T04:41:02;2.10;;;1.70;;
58697;SDS011;44475;53.206;-6.106;2023-07-20T04:43:32;2.20;;;1.70;;
58697;SDS011;44475;53.206;-6.106;2023-07-20T04:45:59;1.73;;;1.60;;
58697;SDS011;44475;53.206;-6.106;2023-07-20T04:48:25;2.15;;;1.77;;
58697;SDS011;44475;53.206;-6.106;2023-07-20T04:50:53;1.77;;;1.52;;
58697;SDS011;44475;53.206;-6.106;2023-07-20T04:53:20;1.70;;;1.60;;
58697;SDS011;44475;53.206;-6.106;2023-07-20T04:55:50;1.85;;;1.58;;
58697;SDS011;44475;53.206;-6.106;2023-07-20T04:58:18;1.70;;;1.60;;
58697;SDS011;44475;53.206;-6.106;2023-07-20T05:00:45;4.07;;;1.80;;
58697;SDS011;44475;53.206;-6.106;2023-07-20T05:03:13;1.95;;;1.67;;
58697;SDS011;44475;53.206;-6.106;2023-07-20T05:05:39;1.90;;;1.60;;
58697;SDS011;44475;53.206;-6.106;2023-07-20T05:08:05;3.55;;;1.77;;
58697;SDS011;44475;53.206;-6.106;2023-07-20T05:10:32;2.03;;;1.70;;
58697;SDS011;44475;53.206;-6.106;2023-07-20T05:12:58;2.58;;;1.80;;
58697;SDS011;44475;53.206;-6.106;2023-07-20T05:15:25;2.72;;;1.80;;
58697;SDS011;44475;53.206;-6.106;2023-07-20T05:17:53;2.38;;;1.75;;
58697;SDS011;44475;53.206;-6.106;2023-07-20T05:20:19;2.70;;;1.70;;
58697;SDS011;44475;53.206;-6.106;2023-07-20T05:22:46;2.08;;;1.70;;
58697;SDS011;44475;53.206;-6.106;2023-07-20T05:25:12;2.63;;;1.70;;
58697;SDS011;44475;53.206;-6.106;2023-07-20T05:27:38;2.17;;;1.80;;
58697;SDS011;44475;53.206;-6.106;2023-07-20T05:30:05;2.78;;;1.60;;
58697;SDS011;44475;53.206;-6.106;2023-07-20T05:32:32;2.40;;;1.67;;
58697;SDS011;44475;53.206;-6.106;2023-07-20T05:34:59;2.10;;;1.70;;
58697;SDS011;44475;53.206;-6.106;2023-07-20T05:37:25;2.38;;;1.60;;
58697;SDS011;44475;53.206;-6.106;2023-07-20T05:39:51;1.92;;;1.60;;
58697;SDS011;44475;53.206;-6.106;2023-07-20T05:42:17;2.40;;;1.80;;
58697;SDS011;44475;53.206;-6.106;2023-07-20T05:44:44;2.63;;;1.70;;
58697;SDS011;44475;53.206;-6.106;2023-07-20T05:47:12;2.10;;;1.60;;
58697;SDS011;44475;53.206;-6.106;2023-07-20T05:49:38;2.53;;;1.88;;
58697;SDS011;44475;53.206;-6.106;2023-07-20T05:52:05;2.60;;;1.75;;
58697;SDS011;44475;53.206;-6.106;2023-07-20T05:54:31;2.20;;;1.80;;
58697;SDS011;44475;53.206;-6.106;2023-07-20T05:56:58;1.90;;;1.70;;
58697;SDS011;44475;53.206;-6.106;2023-07-20T05:59:24;2.30;;;1.70;;
58697;SDS011;44475;53.206;-6.106;2023-07-20T06:01:53;1.90;;;1.60;;
58697;SDS011;44475;53.206;-6.106;2023-07-20T06:04:19;2.60;;;1.77;;
58697;SDS011;44475;53.206;-6.106;2023-07-20T06:06:45;2.88;;;1.70;;
58697;SDS011;44475;53.206;-6.106;2023-07-20T06:09:11;2.80;;;1.88;;
58697;SDS011;44475;53.206;-6.106;2023-07-20T06:11:38;2.40;;;1.70;;
58697;SDS011;44475;53.206;-6.106;2023-07-20T06:14:05;2.58;;;1.90;;
58697;SDS011;44475;53.206;-6.106;2023-07-20T06:16:31;3.35;;;1.80;;
58697;SDS011;44475;53.206;-6.106;2023-07-20T06:18:58;2.78;;;2.00;;
58697;SDS011;44475;53.206;-6.106;2023-07-20T06:21:27;2.20;;;1.70;;
58697;SDS011;44475;53.206;-6.106;2023-07-20T06:23:53;2.88;;;1.90;;
58697;SDS011;44475;53.206;-6.106;2023-07-20T06:26:19;2.88;;;1.80;;
58697;SDS011;44475;53.206;-6.106;2023-07-20T06:28:46;2.67;;;1.80;;
58697;SDS011;44475;53.206;-6.106;2023-07-20T06:31:12;3.83;;;1.90;;
58697;SDS011;44475;53.206;-6.106;2023-07-20T06:33:38;2.38;;;1.80;;
58697;SDS011;44475;53.206;-6.106;2023-07-20T06:36:04;3.17;;;1.90;;
58697;SDS011;44475;53.206;-6.106;2023-07-20T06:38:31;2.08;;;1.80;;
58697;SDS011;44475;53.206;-6.106;2023-07-20T06:40:57;2.42;;;1.73;;
58697;SDS011;44475;53.206;-6.106;2023-07-20T06:43:23;2.63;;;1.90;;
58697;SDS011;44475;53.206;-6.106;2023-07-20T06:45:53;2.10;;;1.80;;
58697;SDS011;44475;53.206;-6.106;2023-07-20T06:48:19;3.25;;;2.10;;
58697;SDS011;44475;53.206;-6.106;2023-07-20T06:50:46;2.30;;;1.90;;
58697;SDS011;44475;53.206;-6.106;2023-07-20T06:53:13;3.10;;;2.00;;
58697;SDS011;44475;53.206;-6.106;2023-07-20T06:55:39;2.80;;;2.00;;
58697;SDS011;44475;53.206;-6.106;2023-07-20T06:58:07;2.95;;;2.00;;
58697;SDS011;44475;53.206;-6.106;2023-07-20T07:00:34;2.75;;;2.13;;
58697;SDS011;44475;53.206;-6.106;2023-07-20T07:03:00;3.08;;;2.15;;
58697;SDS011;44475;53.206;-6.106;2023-07-20T07:05:27;3.45;;;2.30;;
58697;SDS011;44475;53.206;-6.106;2023-07-20T07:07:54;2.97;;;2.30;;
58697;SDS011;44475;53.206;-6.106;2023-07-20T07:10:20;2.58;;;2.08;;
58697;SDS011;44475;53.206;-6.106;2023-07-20T07:12:46;2.95;;;2.13;;
58697;SDS011;44475;53.206;-6.106;2023-07-20T07:15:12;2.85;;;2.10;;
58697;SDS011;44475;53.206;-6.106;2023-07-20T07:17:38;2.80;;;2.10;;
58697;SDS011;44475;53.206;-6.106;2023-07-20T07:20:05;3.28;;;2.20;;
58697;SDS011;44475;53.206;-6.106;2023-07-20T07:22:32;3.08;;;2.17;;
58697;SDS011;44475;53.206;-6.106;2023-07-20T07:24:58;3.38;;;2.25;;
58697;SDS011;44475;53.206;-6.106;2023-07-20T07:27:25;2.90;;;2.17;;
58697;SDS011;44475;53.206;-6.106;2023-07-20T07:29:51;3.72;;;2.35;;
58697;SDS011;44475;53.206;-6.106;2023-07-20T07:32:17;3.13;;;2.20;;
58697;SDS011;44475;53.206;-6.106;2023-07-20T07:34:44;3.20;;;2.33;;
58697;SDS011;44475;53.206;-6.106;2023-07-20T07:37:11;3.45;;;2.28;;
58697;SDS011;44475;53.206;-6.106;2023-07-20T07:39:38;3.15;;;2.42;;
58697;SDS011;44475;53.206;-6.106;2023-07-20T07:42:05;3.25;;;2.40;;
58697;SDS011;44475;53.206;-6.106;2023-07-20T07:44:31;3.33;;;2.40;;
58697;SDS011;44475;53.206;-6.106;2023-07-20T07:46:57;4.25;;;2.40;;
58697;SDS011;44475;53.206;-6.106;2023-07-20T07:49:23;3.55;;;2.55;;
58697;SDS011;44475;53.206;-6.106;2023-07-20T07:51:50;3.53;;;2.42;;
58697;SDS011;44475;53.206;-6.106;2023-07-20T07:54:16;3.70;;;2.38;;
58697;SDS011;44475;53.206;-6.106;2023-07-20T07:56:42;3.13;;;2.30;;
58697;SDS011;44475;53.206;-6.106;2023-07-20T07:59:09;3.50;;;2.58;;
58697;SDS011;44475;53.206;-6.106;2023-07-20T08:01:36;4.10;;;2.65;;
58697;SDS011;44475;53.206;-6.106;2023-07-20T08:04:02;3.42;;;2.40;;
58697;SDS011;44475;53.206;-6.106;2023-07-20T08:06:29;4.20;;;2.60;;
58697;SDS011;44475;53.206;-6.106;2023-07-20T08:08:56;3.55;;;2.58;;
58697;SDS011;44475;53.206;-6.106;2023-07-20T08:11:23;4.72;;;2.72;;
58697;SDS011;44475;53.206;-6.106;2023-07-20T08:13:49;3.45;;;2.47;;
58697;SDS011;44475;53.206;-6.106;2023-07-20T08:16:16;3.42;;;2.55;;
58697;SDS011;44475;53.206;-6.106;2023-07-20T08:18:43;4.10;;;2.85;;
58697;SDS011;44475;53.206;-6.106;2023-07-20T08:21:10;4.65;;;3.10;;
58697;SDS011;44475;53.206;-6.106;2023-07-20T08:23:37;4.72;;;2.80;;
58697;SDS011;44475;53.206;-6.106;2023-07-20T08:26:03;4.13;;;2.95;;
58697;SDS011;44475;53.206;-6.106;2023-07-20T08:28:29;4.18;;;2.90;;
58697;SDS011;44475;53.206;-6.106;2023-07-20T08:30:56;4.50;;;2.90;;
58697;SDS011;44475;53.206;-6.106;2023-07-20T08:33:23;3.65;;;2.90;;
58697;SDS011;44475;53.206;-6.106;2023-07-20T08:35:49;5.13;;;2.90;;
58697;SDS011;44475;53.206;-6.106;2023-07-20T08:38:15;4.53;;;3.08;;
58697;SDS011;44475;53.206;-6.106;2023-07-20T08:40:43;4.47;;;3.17;;
58697;SDS011;44475;53.206;-6.106;2023-07-20T08:43:11;4.20;;;3.08;;
58697;SDS011;44475;53.206;-6.106;2023-07-20T08:45:38;4.95;;;3.33;;
58697;SDS011;44475;53.206;-6.106;2023-07-20T08:48:06;4.38;;;3.17;;
58697;SDS011;44475;53.206;-6.106;2023-07-20T08:50:33;4.38;;;3.20;;
58697;SDS011;44475;53.206;-6.106;2023-07-20T08:53:00;4.63;;;3.03;;
58697;SDS011;44475;53.206;-6.106;2023-07-20T08:55:28;4.85;;;3.40;;
58697;SDS011;44475;53.206;-6.106;2023-07-20T08:57:55;4.70;;;3.15;;
58697;SDS011;44475;53.206;-6.106;2023-07-20T09:00:26;4.70;;;3.20;;
58697;SDS011;44475;53.206;-6.106;2023-07-20T09:02:56;4.65;;;3.20;;
58697;SDS011;44475;53.206;-6.106;2023-07-20T09:05:24;5.32;;;3.53;;
58697;SDS011;44475;53.206;-6.106;2023-07-20T09:07:51;4.63;;;3.33;;
58697;SDS011;44475;53.206;-6.106;2023-07-20T09:10:19;4.60;;;3.28;;
58697;SDS011;44475;53.206;-6.106;2023-07-20T09:12:49;4.47;;;3.33;;
58697;SDS011;44475;53.206;-6.106;2023-07-20T09:15:15;4.70;;;3.30;;
58697;SDS011;44475;53.206;-6.106;2023-07-20T09:17:46;5.63;;;3.38;;
58697;SDS011;44475;53.206;-6.106;2023-07-20T09:20:14;5.18;;;3.33;;
58697;SDS011;44475;53.206;-6.106;2023-07-20T09:22:41;4.80;;;3.40;;
58697;SDS011;44475;53.206;-6.106;2023-07-20T09:25:14;4.78;;;3.20;;
58697;SDS011;44475;53.206;-6.106;2023-07-20T09:27:47;5.00;;;3.40;;
58697;SDS011;44475;53.206;-6.106;2023-07-20T09:30:14;4.38;;;3.25;;
58697;SDS011;44475;53.206;-6.106;2023-07-20T09:32:42;5.95;;;3.67;;
58697;SDS011;44475;53.206;-6.106;2023-07-20T09:35:16;5.00;;;3.60;;
58697;SDS011;44475;53.206;-6.106;2023-07-20T09:37:55;5.10;;;3.28;;
58697;SDS011;44475;53.206;-6.106;2023-07-20T09:40:24;4.30;;;3.30;;
58697;SDS011;44475;53.206;-6.106;2023-07-20T09:42:52;4.75;;;3.65;;
58697;SDS011;44475;53.206;-6.106;2023-07-20T09:45:29;4.30;;;3.20;;
58697;SDS011;44475;53.206;-6.106;2023-07-20T09:48:04;7.25;;;3.53;;
58697;SDS011;44475;53.206;-6.106;2023-07-20T09:50:34;4.57;;;3.50;;
58697;SDS011;44475;53.206;-6.106;2023-07-20T09:53:12;7.28;;;3.83;;
58697;SDS011;44475;53.206;-6.106;2023-07-20T09:55:40;8.40;;;3.70;;
58697;SDS011;44475;53.206;-6.106;2023-07-20T09:58:10;5.05;;;3.60;;
58697;SDS011;44475;53.206;-6.106;2023-07-20T10:00:37;5.78;;;3.78;;
58697;SDS011;44475;53.206;-6.106;2023-07-20T10:03:04;5.80;;;3.40;;
58697;SDS011;44475;53.206;-6.106;2023-07-20T10:05:35;6.28;;;3.50;;
58697;SDS011;44475;53.206;-6.106;2023-07-20T10:08:04;6.35;;;3.58;;
58697;SDS011;44475;53.206;-6.106;2023-07-20T10:10:37;5.57;;;3.47;;
58697;SDS011;44475;53.206;-6.106;2023-07-20T10:13:06;6.07;;;3.63;;
58697;SDS011;44475;53.206;-6.106;2023-07-20T10:16:01;7.22;;;3.60;;
58697;SDS011;44475;53.206;-6.106;2023-07-20T10:18:51;6.53;;;4.00;;
58697;SDS011;44475;53.206;-6.106;2023-07-20T10:21:40;5.15;;;3.50;;
58697;SDS011;44475;53.206;-6.106;2023-07-20T10:24:09;7.60;;;3.60;;
58697;SDS011;44475;53.206;-6.106;2023-07-20T10:26:36;5.22;;;3.70;;
58697;SDS011;44475;53.206;-6.106;2023-07-20T10:29:03;5.00;;;3.60;;
58697;SDS011;44475;53.206;-6.106;2023-07-20T10:31:30;4.72;;;3.67;;
58697;SDS011;44475;53.206;-6.106;2023-07-20T10:33:58;6.65;;;4.20;;
58697;SDS011;44475;53.206;-6.106;2023-07-20T10:36:25;5.47;;;3.65;;
58697;SDS011;44475;53.206;-6.106;2023-07-20T10:38:53;5.18;;;3.95;;
58697;SDS011;44475;53.206;-6.106;2023-07-20T10:41:32;5.63;;;3.90;;
58697;SDS011;44475;53.206;-6.106;2023-07-20T10:44:01;5.47;;;3.58;;
58697;SDS011;44475;53.206;-6.106;2023-07-20T10:49:04;5.65;;;4.07;;
58697;SDS011;44475;53.206;-6.106;2023-07-20T10:51:44;5.43;;;3.90;;
58697;SDS011;44475;53.206;-6.106;2023-07-20T10:56:43;7.15;;;3.88;;
58697;SDS011;44475;53.206;-6.106;2023-07-20T11:01:46;5.35;;;4.05;;
58697;SDS011;44475;53.206;-6.106;2023-07-20T11:04:14;5.50;;;4.00;;
58697;SDS011;44475;53.206;-6.106;2023-07-20T11:06:45;6.28;;;4.20;;
58697;SDS011;44475;53.206;-6.106;2023-07-20T11:09:22;8.18;;;4.35;;
58697;SDS011;44475;53.206;-6.106;2023-07-20T11:11:51;7.18;;;4.10;;
58697;SDS011;44475;53.206;-6.106;2023-07-20T11:14:36;6.18;;;4.30;;
58697;SDS011;44475;53.206;-6.106;2023-07-20T11:17:13;6.38;;;4.30;;
58697;SDS011;44475;53.206;-6.106;2023-07-20T11:19:40;5.45;;;4.03;;
58697;SDS011;44475;53.206;-6.106;2023-07-20T11:22:07;5.68;;;4.22;;
58697;SDS011;44475;53.206;-6.106;2023-07-20T11:24:37;6.00;;;4.10;;
58697;SDS011;44475;53.206;-6.106;2023-07-20T11:27:05;6.65;;;4.00;;
58697;SDS011;44475;53.206;-6.106;2023-07-20T11:29:31;5.85;;;4.18;;
58697;SDS011;44475;53.206;-6.106;2023-07-20T11:31:57;6.40;;;4.15;;
58697;SDS011;44475;53.206;-6.106;2023-07-20T11:34:24;5.30;;;4.00;;
58697;SDS011;44475;53.206;-6.106;2023-07-20T11:36:50;5.53;;;4.07;;
58697;SDS011;44475;53.206;-6.106;2023-07-20T11:39:18;6.15;;;4.28;;
58697;SDS011;44475;53.206;-6.106;2023-07-20T11:41:47;6.22;;;4.25;;
58697;SDS011;44475;53.206;-6.106;2023-07-20T11:44:17;5.93;;;4.32;;
58697;SDS011;44475;53.206;-6.106;2023-07-20T11:46:46;5.70;;;4.30;;
58697;SDS011;44475;53.206;-6.106;2023-07-20T11:49:12;5.70;;;4.15;;
58697;SDS011;44475;53.206;-6.106;2023-07-20T11:51:39;5.97;;;4.20;;
58697;SDS011;44475;53.206;-6.106;2023-07-20T11:54:07;5.90;;;4.40;;
58697;SDS011;44475;53.206;-6.106;2023-07-20T11:56:34;5.95;;;4.38;;
58697;SDS011;44475;53.206;-6.106;2023-07-20T11:59:01;6.40;;;4.40;;
58697;SDS011;44475;53.206;-6.106;2023-07-20T12:01:29;5.95;;;4.30;;
58697;SDS011;44475;53.206;-6.106;2023-07-20T12:04:03;5.78;;;4.45;;
58697;SDS011;44475;53.206;-6.106;2023-07-20T12:06:30;6.00;;;4.25;;
58697;SDS011;44475;53.206;-6.106;2023-07-20T12:08:57;6.75;;;3.95;;
58697;SDS011;44475;53.206;-6.106;2023-07-20T12:11:34;5.63;;;4.20;;
58697;SDS011;44475;53.206;-6.106;2023-07-20T12:14:09;5.60;;;4.20;;
58697;SDS011;44475;53.206;-6.106;2023-07-20T12:16:36;6.03;;;4.30;;
58697;SDS011;44475;53.206;-6.106;2023-07-20T12:19:04;6.05;;;4.38;;
58697;SDS011;44475;53.206;-6.106;2023-07-20T12:21:31;6.03;;;4.15;;
58697;SDS011;44475;53.206;-6.106;2023-07-20T12:24:02;5.57;;;4.20;;
58697;SDS011;44475;53.206;-6.106;2023-07-20T12:26:30;5.68;;;4.20;;
58697;SDS011;44475;53.206;-6.106;2023-07-20T12:28:57;5.85;;;4.07;;
58697;SDS011;44475;53.206;-6.106;2023-07-20T12:31:24;7.03;;;4.20;;
58697;SDS011;44475;53.206;-6.106;2023-07-20T12:33:52;6.90;;;4.32;;
58697;SDS011;44475;53.206;-6.106;2023-07-20T12:36:22;6.30;;;4.32;;
58697;SDS011;44475;53.206;-6.106;2023-07-20T12:38:48;5.90;;;4.25;;
58697;SDS011;44475;53.206;-6.106;2023-07-20T12:41:15;5.55;;;4.10;;
58697;SDS011;44475;53.206;-6.106;2023-07-20T12:43:41;5.55;;;4.10;;
58697;SDS011;44475;53.206;-6.106;2023-07-20T12:46:11;6.35;;;4.28;;
58697;SDS011;44475;53.206;-6.106;2023-07-20T12:48:38;6.40;;;3.95;;
58697;SDS011;44475;53.206;-6.106;2023-07-20T12:51:07;7.47;;;4.25;;
58697;SDS011;44475;53.206;-6.106;2023-07-20T12:53:34;7.00;;;4.93;;
58697;SDS011;44475;53.206;-6.106;2023-07-20T12:56:01;7.38;;;4.40;;
58697;SDS011;44475;53.206;-6.106;2023-07-20T12:58:27;11.35;;;4.93;;
58697;SDS011;44475;53.206;-6.106;2023-07-20T13:00:53;8.45;;;4.53;;
58697;SDS011;44475;53.206;-6.106;2023-07-20T13:03:20;8.85;;;4.90;;
58697;SDS011;44475;53.206;-6.106;2023-07-20T13:05:47;8.95;;;4.60;;
58697;SDS011;44475;53.206;-6.106;2023-07-20T13:08:14;7.72;;;4.35;;
58697;SDS011;44475;53.206;-6.106;2023-07-20T13:10:40;7.07;;;4.47;;
58697;SDS011;44475;53.206;-6.106;2023-07-20T13:13:08;10.95;;;4.97;;
58697;SDS011;44475;53.206;-6.106;2023-07-20T13:15:44;7.88;;;4.50;;
58697;SDS011;44475;53.206;-6.106;2023-07-20T13:18:11;8.75;;;4.38;;
58697;SDS011;44475;53.206;-6.106;2023-07-20T13:20:37;6.65;;;4.45;;
58697;SDS011;44475;53.206;-6.106;2023-07-20T13:23:04;6.25;;;4.55;;
58697;SDS011;44475;53.206;-6.106;2023-07-20T13:25:30;8.90;;;4.95;;
58697;SDS011;44475;53.206;-6.106;2023-07-20T13:27:57;9.95;;;4.50;;
58697;SDS011;44475;53.206;-6.106;2023-07-20T13:30:23;11.90;;;4.43;;
58697;SDS011;44475;53.206;-6.106;2023-07-20T13:32:49;7.30;;;4.60;;
58697;SDS011;44475;53.206;-6.106;2023-07-20T13:35:16;6.72;;;4.13;;
58697;SDS011;44475;53.206;-6.106;2023-07-20T13:37:42;6.70;;;4.38;;
58697;SDS011;44475;53.206;-6.106;2023-07-20T13:40:09;8.00;;;4.13;;
58697;SDS011;44475;53.206;-6.106;2023-07-20T13:42:38;8.52;;;4.40;;
58697;SDS011;44475;53.206;-6.106;2023-07-20T13:45:05;10.30;;;4.65;;
58697;SDS011;44475;53.206;-6.106;2023-07-20T13:47:32;7.00;;;4.50;;
58697;SDS011;44475;53.206;-6.106;2023-07-20T13:49:58;8.82;;;4.60;;
58697;SDS011;44475;53.206;-6.106;2023-07-20T13:52:26;6.97;;;4.50;;
58697;SDS011;44475;53.206;-6.106;2023-07-20T13:54:52;6.43;;;4.20;;
58697;SDS011;44475;53.206;-6.106;2023-07-20T13:57:18;6.78;;;4.40;;
58697;SDS011;44475;53.206;-6.106;2023-07-20T13:59:44;7.38;;;4.40;;
58697;SDS011;44475;53.206;-6.106;2023-07-20T14:02:10;6.72;;;4.45;;
58697;SDS011;44475;53.206;-6.106;2023-07-20T14:04:39;7.45;;;4.30;;
58697;SDS011;44475;53.206;-6.106;2023-07-20T14:07:06;8.30;;;4.53;;
58697;SDS011;44475;53.206;-6.106;2023-07-20T14:09:32;6.00;;;4.20;;
58697;SDS011;44475;53.206;-6.106;2023-07-20T14:11:58;6.50;;;4.25;;
58697;SDS011;44475;53.206;-6.106;2023-07-20T14:14:25;5.50;;;4.18;;
58697;SDS011;44475;53.206;-6.106;2023-07-20T14:16:51;6.65;;;4.53;;
58697;SDS011;44475;53.206;-6.106;2023-07-20T14:19:17;5.47;;;4.15;;
58697;SDS011;44475;53.206;-6.106;2023-07-20T14:21:43;7.00;;;4.50;;
58697;SDS011;44475;53.206;-6.106;2023-07-20T14:24:10;7.75;;;4.43;;
58697;SDS011;44475;53.206;-6.106;2023-07-20T14:26:36;6.05;;;4.20;;
58697;SDS011;44475;53.206;-6.106;2023-07-20T14:29:02;5.75;;;4.40;;
58697;SDS011;44475;53.206;-6.106;2023-07-20T14:31:29;8.18;;;4.90;;
58697;SDS011;44475;53.206;-6.106;2023-07-20T14:33:56;6.35;;;4.45;;
58697;SDS011;44475;53.206;-6.106;2023-07-20T14:36:22;6.13;;;4.28;;
58697;SDS011;44475;53.206;-6.106;2023-07-20T14:38:49;7.00;;;4.32;;
58697;SDS011;44475;53.206;-6.106;2023-07-20T14:41:15;6.25;;;4.30;;
58697;SDS011;44475;53.206;-6.106;2023-07-20T14:43:41;6.72;;;4.30;;
58697;SDS011;44475;53.206;-6.106;2023-07-20T14:46:07;6.82;;;4.43;;
58697;SDS011;44475;53.206;-6.106;2023-07-20T14:48:34;7.25;;;4.57;;
58697;SDS011;44475;53.206;-6.106;2023-07-20T14:51:00;6.60;;;4.65;;
58697;SDS011;44475;53.206;-6.106;2023-07-20T14:53:26;8.73;;;4.60;;